Time;durP1;ratioP1;P1;durP2;ratioP2;P2;SDS_P1;SDS_P2;PMS_P1;PMS_P2;Temp;Humidity;BMP_temperature;BMP_pressure;BME280_temperature;BME280_humidity;BME280_pressure;Samples;Min_cycle;Max_cycle;Signal;HPM_P1;HPM_P2
2022/09/17 00:00:49;;;;;;;0.98;0.60;;;11.10;99.90;;;;;;5071140;28;20049;-82
2022/09/17 00:03:22;;;;;;;0.50;0.50;;;11.20;99.90;;;;;;5052213;28;20037;-86
2022/09/17 00:05:48;;;;;;;6.50;1.85;;;11.20;99.90;;;;;;5064235;28;20080;-85
2022/09/17 00:08:14;;;;;;;0.50;0.50;;;11.30;99.90;;;;;;5026158;28;20126;-84
2022/09/17 00:10:42;;;;;;;0.50;0.50;;;11.30;99.90;;;;;;5036394;28;20036;-83
2022/09/17 00:13:09;;;;;;;0.70;0.70;;;11.30;99.90;;;;;;5080586;28;20123;-87
2022/09/17 00:15:44;;;;;;;0.50;0.50;;;11.30;99.90;;;;;;5070966;28;20043;-85
2022/09/17 00:18:11;;;;;;;0.43;0.43;;;11.10;99.90;;;;;;5083304;28;20052;-84
2022/09/17 00:20:41;;;;;;;0.40;0.40;;;11.10;99.90;;;;;;5091616;28;20647;-86
2022/09/17 00:23:08;;;;;;;0.40;0.40;;;11.20;99.90;;;;;;5067983;28;20502;-89
2022/09/17 00:25:37;;;;;;;0.60;0.60;;;11.20;99.90;;;;;;5046137;28;20125;-85
2022/09/17 00:28:02;;;;;;;0.40;0.40;;;11.00;99.90;;;;;;5050935;28;20040;-88
2022/09/17 00:30:28;;;;;;;0.60;0.60;;;10.70;99.90;;;;;;5046727;28;20078;-85
2022/09/17 00:32:57;;;;;;;0.40;0.40;;;10.40;99.90;;;;;;5040262;28;20119;-84
2022/09/17 00:35:26;;;;;;;8.07;2.55;;;10.10;99.90;;;;;;5061894;28;20044;-85
2022/09/17 00:37:52;;;;;;;0.50;0.50;;;9.90;99.90;;;;;;5069656;28;20036;-85
2022/09/17 00:40:19;;;;;;;0.60;0.60;;;9.80;99.90;;;;;;5035135;28;20041;-86
2022/09/17 00:42:45;;;;;;;0.50;0.50;;;9.70;99.90;;;;;;5052115;28;20055;-85
2022/09/17 00:45:12;;;;;;;1.85;1.75;;;9.60;99.90;;;;;;5050920;28;20044;-86
2022/09/17 00:48:00;;;;;;;0.63;0.63;;;9.50;99.90;;;;;;5053531;28;20128;-88
2022/09/17 00:50:40;;;;;;;0.40;0.40;;;9.50;99.90;;;;;;5039577;28;20385;-86
2022/09/17 00:53:10;;;;;;;0.70;0.70;;;9.50;99.90;;;;;;5065590;28;20040;-86
2022/09/17 00:55:49;;;;;;;0.50;0.50;;;9.40;99.90;;;;;;5065171;28;20049;-87
2022/09/17 00:58:17;;;;;;;0.40;0.40;;;9.50;99.90;;;;;;5053675;28;20685;-83
2022/09/17 01:00:45;;;;;;;0.50;0.50;;;9.40;99.90;;;;;;5046980;28;20551;-84
2022/09/17 01:03:11;;;;;;;0.40;0.40;;;10.70;99.90;;;;;;5062702;28;20053;-86
2022/09/17 01:06:03;;;;;;;0.50;0.50;;;9.50;99.90;;;;;;5059342;28;20059;-85
2022/09/17 01:08:44;;;;;;;0.40;0.40;;;9.60;99.90;;;;;;5078702;28;20493;-85
2022/09/17 01:11:34;;;;;;;0.40;0.40;;;9.70;99.90;;;;;;5069732;28;20037;-87
2022/09/17 01:14:18;;;;;;;0.47;0.47;;;9.60;99.90;;;;;;5056259;28;20036;-86
2022/09/17 01:17:12;;;;;;;0.50;0.50;;;9.90;99.90;;;;;;5061193;28;20044;-89
2022/09/17 01:20:05;;;;;;;0.43;0.43;;;9.70;99.90;;;;;;5056216;28;20040;-86
2022/09/17 01:23:00;;;;;;;0.80;0.80;;;9.60;99.90;;;;;;5066246;28;20040;-85
2022/09/17 01:25:44;;;;;;;0.50;0.50;;;9.80;99.90;;;;;;5065256;28;20041;-82
2022/09/17 01:28:13;;;;;;;0.55;0.55;;;9.80;99.90;;;;;;5054213;28;20405;-84
2022/09/17 01:30:51;;;;;;;0.85;0.85;;;9.90;99.90;;;;;;5054236;28;20379;-82
2022/09/17 01:33:29;;;;;;;0.40;0.40;;;10.00;99.90;;;;;;5064063;28;20045;-83
2022/09/17 01:36:24;;;;;;;0.55;0.55;;;10.00;99.90;;;;;;5060905;28;20056;-84
2022/09/17 01:39:11;;;;;;;0.60;0.60;;;10.10;99.90;;;;;;5069408;28;20433;-84
2022/09/17 01:41:53;;;;;;;1.35;0.88;;;10.30;99.90;;;;;;5080623;28;20559;-84
2022/09/17 01:44:42;;;;;;;0.50;0.50;;;10.30;99.90;;;;;;5063224;28;20050;-85
2022/09/17 01:47:17;;;;;;;0.60;0.60;;;10.40;99.90;;;;;;5050613;28;20238;-85
2022/09/17 01:49:44;;;;;;;0.60;0.60;;;10.40;99.90;;;;;;5054648;28;20059;-85
2022/09/17 01:52:12;;;;;;;4.15;1.88;;;10.30;99.90;;;;;;5036318;28;20052;-87
2022/09/17 01:54:50;;;;;;;0.50;0.50;;;10.30;99.90;;;;;;5064333;28;20045;-88
2022/09/17 01:57:24;;;;;;;0.30;0.30;;;10.30;99.90;;;;;;5064429;28;20043;-85
2022/09/17 02:00:06;;;;;;;0.70;0.70;;;10.20;99.90;;;;;;5058729;28;20367;-86
2022/09/17 02:02:44;;;;;;;1.10;1.02;;;10.20;99.90;;;;;;5063104;28;20036;-85
2022/09/17 02:05:23;;;;;;;0.40;0.40;;;10.10;99.90;;;;;;5076007;28;20056;-86
2022/09/17 02:07:58;;;;;;;0.40;0.40;;;10.10;99.90;;;;;;5065712;28;20470;-87
2022/09/17 02:10:29;;;;;;;0.50;0.50;;;10.00;99.90;;;;;;5066500;28;20041;-88
2022/09/17 02:13:09;;;;;;;0.40;0.40;;;9.90;99.90;;;;;;5079715;28;20036;-88
2022/09/17 02:15:40;;;;;;;0.52;0.52;;;9.90;99.90;;;;;;5061994;28;20036;-85
2022/09/17 02:18:18;;;;;;;0.43;0.43;;;9.80;99.90;;;;;;5079421;28;20070;-85
2022/09/17 02:20:51;;;;;;;0.77;0.77;;;9.90;99.90;;;;;;5066017;28;20049;-89
2022/09/17 02:23:23;;;;;;;0.47;0.47;;;9.80;99.90;;;;;;5046100;28;20490;-86
2022/09/17 02:25:58;;;;;;;0.40;0.40;;;9.90;99.90;;;;;;5075480;28;20129;-90
2022/09/17 02:28:32;;;;;;;0.40;0.40;;;9.90;99.90;;;;;;5060474;28;20458;-85
2022/09/17 02:30:57;;;;;;;0.50;0.50;;;10.10;99.90;;;;;;5078423;28;20047;-86
2022/09/17 02:33:25;;;;;;;0.68;0.68;;;10.40;99.90;;;;;;5060353;28;20037;-85
2022/09/17 02:35:51;;;;;;;0.68;0.68;;;10.20;99.90;;;;;;5066407;28;20041;-86
2022/09/17 02:38:21;;;;;;;;;;;10.20;99.90;;;;;;5054904;28;20072;-85
2022/09/17 02:40:53;;;;;;;0.60;0.60;;;10.10;99.90;;;;;;5053877;28;19939;-91
2022/09/17 02:43:30;;;;;;;0.50;0.50;;;10.20;99.90;;;;;;5084941;28;20043;-86
2022/09/17 02:46:30;;;;;;;0.55;0.55;;;10.00;99.90;;;;;;5082346;28;20122;-87
2022/09/17 02:49:19;;;;;;;0.40;0.40;;;10.00;99.90;;;;;;5088190;28;20047;-84
2022/09/17 02:52:14;;;;;;;8.40;0.70;;;10.10;99.90;;;;;;5077265;28;20045;-85
2022/09/17 02:55:07;;;;;;;0.55;0.55;;;10.00;99.90;;;;;;5083751;28;20377;-86
2022/09/17 02:58:02;;;;;;;0.60;0.60;;;10.00;99.90;;;;;;5062656;28;20501;-86
2022/09/17 03:00:28;;;;;;;0.95;0.95;;;10.10;99.90;;;;;;5053391;28;20041;-88
2022/09/17 03:03:00;;;;;;;0.50;0.50;;;10.00;99.90;;;;;;5069185;28;20094;-87
2022/09/17 03:05:27;;;;;;;0.63;0.63;;;10.00;99.90;;;;;;5076315;28;20044;-87
2022/09/17 03:07:58;;;;;;;0.50;0.50;;;10.00;99.90;;;;;;5042343;28;20048;-93
2022/09/17 03:10:29;;;;;;;0.60;0.60;;;9.90;99.90;;;;;;5083960;28;20064;-90
2022/09/17 03:12:54;;;;;;;0.47;0.47;;;9.90;99.90;;;;;;5030563;28;20036;-93
2022/09/17 03:15:21;;;;;;;0.80;0.80;;;9.80;99.90;;;;;;5041078;28;20044;-89
2022/09/17 03:17:47;;;;;;;0.57;0.57;;;9.80;99.90;;;;;;5085597;28;20054;-87
2022/09/17 03:20:14;;;;;;;0.75;0.75;;;9.80;99.90;;;;;;5039442;28;20052;-87
2022/09/17 03:22:41;;;;;;;0.43;0.43;;;9.70;99.90;;;;;;5056563;28;20044;-89
2022/09/17 03:25:07;;;;;;;0.35;0.35;;;9.80;99.90;;;;;;5055131;28;20044;-86
2022/09/17 03:27:33;;;;;;;0.52;0.52;;;9.60;99.90;;;;;;5058432;28;20498;-87
2022/09/17 03:29:59;;;;;;;0.40;0.40;;;9.60;99.90;;;;;;5077382;28;20043;-84
2022/09/17 03:32:26;;;;;;;0.45;0.45;;;8.90;99.90;;;;;;5071070;28;20044;-90
2022/09/17 03:34:53;;;;;;;0.55;0.55;;;10.10;99.90;;;;;;5048592;28;20040;-83
2022/09/17 03:37:20;;;;;;;0.40;0.40;;;9.80;99.90;;;;;;5069241;28;20047;-88
2022/09/17 03:39:49;;;;;;;0.65;0.65;;;9.80;99.90;;;;;;5076196;28;20459;-85
2022/09/17 03:42:15;;;;;;;1.48;1.48;;;10.00;99.90;;;;;;5037188;28;20083;-86
2022/09/17 03:44:44;;;;;;;0.50;0.50;;;10.20;99.90;;;;;;5070208;28;20038;-85
2022/09/17 03:47:15;;;;;;;1.25;1.25;;;10.60;99.90;;;;;;5076649;28;20527;-87
2022/09/17 03:49:41;;;;;;;0.50;0.50;;;10.60;99.90;;;;;;5083968;28;20572;-85
2022/09/17 03:52:07;;;;;;;0.50;0.50;;;10.90;99.90;;;;;;5089664;28;20043;-85
2022/09/17 03:54:33;;;;;;;0.77;0.77;;;10.60;99.90;;;;;;5079649;28;20386;-84
2022/09/17 03:56:58;;;;;;;0.50;0.50;;;10.30;99.90;;;;;;5069950;28;20197;-84
2022/09/17 03:59:25;;;;;;;0.40;0.40;;;10.20;99.90;;;;;;5072849;28;20048;-84
2022/09/17 04:01:53;;;;;;;0.60;0.60;;;10.00;99.90;;;;;;5058822;28;20064;-85
2022/09/17 04:04:19;;;;;;;0.50;0.50;;;10.00;99.90;;;;;;5072356;28;20779;-88
2022/09/17 04:06:45;;;;;;;0.38;0.38;;;10.10;99.90;;;;;;5038297;28;20068;-89
2022/09/17 04:09:10;;;;;;;0.55;0.55;;;9.80;99.90;;;;;;5065748;28;20044;-87
2022/09/17 04:11:36;;;;;;;1.88;0.93;;;10.00;99.90;;;;;;5059784;28;20068;-86
2022/09/17 04:14:02;;;;;;;0.40;0.40;;;9.70;99.90;;;;;;5066568;28;20559;-88
2022/09/17 04:16:27;;;;;;;0.40;0.40;;;9.20;99.90;;;;;;5054737;28;20047;-87
2022/09/17 04:18:53;;;;;;;1.75;1.05;;;10.30;99.90;;;;;;5056866;28;20058;-84
2022/09/17 04:21:19;;;;;;;1.02;0.98;;;9.90;99.90;;;;;;5086875;28;20048;-86
2022/09/17 04:23:45;;;;;;;;;;;9.50;99.90;;;;;;5055612;28;20045;-84
2022/09/17 04:26:10;;;;;;;0.50;0.50;;;9.50;99.90;;;;;;5066587;28;20003;-86
2022/09/17 04:28:36;;;;;;;0.52;0.52;;;9.60;99.90;;;;;;5050537;28;20041;-85
2022/09/17 04:31:02;;;;;;;0.43;0.43;;;9.60;99.90;;;;;;5053968;28;20040;-86
2022/09/17 04:33:28;;;;;;;0.60;0.60;;;9.70;99.90;;;;;;5044910;28;20068;-85
2022/09/17 04:35:53;;;;;;;1.25;1.25;;;9.50;99.90;;;;;;5048563;28;20044;-87
2022/09/17 04:38:20;;;;;;;1.92;0.70;;;9.50;99.90;;;;;;5053727;28;21047;-87
2022/09/17 04:40:48;;;;;;;0.60;0.60;;;9.60;99.90;;;;;;5039650;28;20093;-88
2022/09/17 04:43:15;;;;;;;0.50;0.50;;;9.50;99.90;;;;;;5056813;28;20048;-87
2022/09/17 04:45:48;;;;;;;0.70;0.70;;;9.50;99.90;;;;;;5053586;28;20498;-86
2022/09/17 04:48:14;;;;;;;0.50;0.50;;;9.50;99.90;;;;;;5064173;28;20043;-87
2022/09/17 04:50:39;;;;;;;1.85;0.73;;;9.50;99.90;;;;;;5055316;28;20398;-87
2022/09/17 04:53:05;;;;;;;0.35;0.35;;;;;;;;;;5067808;28;20036;-86
2022/09/17 04:55:31;;;;;;;0.50;0.50;;;;;;;;;;5095930;28;20127;-90
2022/09/17 04:57:57;;;;;;;;;;;;;;;;;;5054193;28;20044;-87
2022/09/17 05:00:24;;;;;;;0.73;0.73;;;;;;;;;;5083119;28;19916;-90
2022/09/17 05:02:51;;;;;;;3.88;1.30;;;;;;;;;;5056214;28;20737;-88
2022/09/17 05:05:18;;;;;;;1.13;1.13;;;;;;;;;;5038034;28;20053;-87
2022/09/17 05:07:44;;;;;;;0.40;0.40;;;;;;;;;;5052376;28;20445;-89
2022/09/17 05:10:10;;;;;;;0.50;0.50;;;;;;;;;;5054440;28;20040;-88
2022/09/17 05:12:36;;;;;;;0.55;0.55;;;;;;;;;;5060363;28;20037;-86
2022/09/17 05:15:03;;;;;;;0.68;0.68;;;;;;;;;;5075436;28;20473;-85
2022/09/17 05:17:29;;;;;;;2.85;2.65;;;;;;;;;;5040354;28;20417;-87
2022/09/17 05:19:55;;;;;;;0.50;0.50;;;;;;;;;;5053288;28;20382;-86
2022/09/17 05:22:21;;;;;;;0.57;0.57;;;;;;;;;;5070483;28;20044;-88
2022/09/17 05:24:47;;;;;;;;;;;;;;;;;;5075500;28;20115;-88
2022/09/17 05:27:13;;;;;;;0.50;0.50;;;;;;;;;;5072673;28;20019;-89
2022/09/17 05:29:41;;;;;;;0.40;0.40;;;;;;;;;;5074778;28;20072;-91
2022/09/17 05:32:07;;;;;;;0.50;0.50;;;;;;;;;;5046713;28;20037;-92
2022/09/17 05:34:33;;;;;;;;;;;;;;;;;;5062179;28;20044;-90
2022/09/17 05:36:59;;;;;;;0.95;0.95;;;;;;;;;;5059061;28;19916;-86
2022/09/17 05:39:25;;;;;;;;;;;;;;;;;;5058637;28;20443;-88
2022/09/17 05:41:54;;;;;;;0.50;0.50;;;;;;;;;;5075427;28;19938;-88
2022/09/17 05:44:20;;;;;;;;;;;;;;;;;;5062445;28;20048;-89
2022/09/17 05:46:47;;;;;;;0.50;0.50;;;;;;;;;;5073551;28;19911;-91
2022/09/17 05:49:14;;;;;;;0.40;0.40;;;;;;;;;;5094977;28;20040;-84
2022/09/17 05:51:40;;;;;;;0.50;0.50;;;;;;;;;;5074897;28;20047;-88
2022/09/17 05:54:06;;;;;;;0.40;0.40;;;;;;;;;;5069547;28;20032;-87
2022/09/17 05:56:33;;;;;;;0.50;0.50;;;;;;;;;;5058643;28;20059;-90
2022/09/17 05:58:59;;;;;;;0.30;0.30;;;;;;;;;;5057577;28;20076;-87
2022/09/17 06:01:32;;;;;;;0.50;0.50;;;;;;;;;;5079993;28;20059;-86
2022/09/17 06:04:07;;;;;;;0.47;0.47;;;;;;;;;;5044658;28;20057;-87
2022/09/17 06:06:33;;;;;;;0.63;0.63;;;;;;;;;;5074208;28;20048;-88
2022/09/17 06:08:59;;;;;;;0.40;0.40;;;;;;;;;;5072483;28;20043;-89
2022/09/17 06:11:25;;;;;;;0.47;0.47;;;;;;;;;;5097580;28;20047;-89
2022/09/17 06:13:55;;;;;;;0.40;0.40;;;;;;;;;;5075040;28;20040;-91
2022/09/17 06:16:22;;;;;;;0.50;0.50;;;;;;;;;;5043569;28;20128;-89
2022/09/17 06:18:49;;;;;;;0.40;0.40;;;;;;;;;;5062064;28;20412;-84
2022/09/17 06:21:18;;;;;;;0.88;0.57;;;;;;;;;;5073585;28;20044;-88
2022/09/17 06:23:44;;;;;;;0.50;0.50;;;;;;;;;;5077766;28;20041;-90
2022/09/17 06:26:11;;;;;;;;;;;;;;;;;;5060053;28;20052;-90
2022/09/17 06:28:37;;;;;;;0.50;0.50;;;;;;;;;;5061097;28;19924;-90
2022/09/17 06:31:03;;;;;;;;;;;;;;;;;;5085125;28;20033;-89
2022/09/17 06:33:32;;;;;;;0.68;0.68;;;;;;;;;;5072506;28;20373;-87
2022/09/17 06:35:59;;;;;;;0.55;0.55;;;;;;;;;;5065790;28;20056;-91
2022/09/17 06:38:26;;;;;;;1.00;1.00;;;;;;;;;;5064484;28;20091;-90
2022/09/17 06:40:53;;;;;;;0.40;0.40;;;;;;;;;;5063548;28;20044;-90
2022/09/17 06:43:19;;;;;;;;;;;;;;;;;;5067766;28;20393;-88
2022/09/17 06:45:51;;;;;;;0.50;0.50;;;;;;;;;;5085632;28;19924;-89
2022/09/17 06:48:17;;;;;;;0.40;0.40;;;;;;;;;;5062028;28;20036;-90
2022/09/17 06:50:43;;;;;;;0.40;0.40;;;;;;;;;;5077991;28;20382;-88
2022/09/17 06:53:09;;;;;;;;;;;;;;;;;;5059790;28;20102;-89
2022/09/17 06:55:35;;;;;;;0.40;0.40;;;;;;;;;;5076157;28;20421;-91
2022/09/17 06:58:01;;;;;;;0.50;0.50;;;;;;;;;;5047383;28;20051;-90
2022/09/17 07:00:27;;;;;;;0.60;0.60;;;;;;;;;;5047397;28;20417;-91
2022/09/17 07:02:53;;;;;;;;;;;;;;;;;;5062058;28;20045;-89
2022/09/17 07:05:19;;;;;;;24.60;1.98;;;;;;;;;;5062809;28;19931;-90
2022/09/17 07:07:45;;;;;;;;;;;;;;;;;;5047504;28;20048;-90
2022/09/17 07:10:11;;;;;;;1.60;1.60;;;;;;;;;;5080007;28;20277;-90
2022/09/17 07:12:41;;;;;;;0.40;0.40;;;;;;;;;;5048551;28;20474;-91
2022/09/17 07:15:10;;;;;;;1.83;1.67;;;;;;;;;;5080289;28;20028;-89
2022/09/17 07:17:38;;;;;;;0.50;0.50;;;;;;;;;;5063557;28;20044;-88
2022/09/17 07:20:05;;;;;;;1.65;1.25;;;;;;;;;;5076239;28;20033;-88
2022/09/17 07:22:31;;;;;;;0.60;0.60;;;;;;;;;;5052915;28;20036;-90
2022/09/17 07:24:57;;;;;;;0.80;0.80;;;;;;;;;;5044479;28;20043;-88
2022/09/17 07:27:23;;;;;;;0.60;0.60;;;;;;;;;;5062899;28;20071;-88
2022/09/17 07:29:49;;;;;;;0.50;0.50;;;;;;;;;;5053475;28;20044;-91
2022/09/17 07:32:15;;;;;;;1.08;1.08;;;;;;;;;;5071182;28;20060;-88
2022/09/17 07:34:41;;;;;;;0.40;0.40;;;;;;;;;;5068835;28;20044;-89
2022/09/17 07:37:08;;;;;;;0.45;0.45;;;;;;;;;;5061569;28;20032;-88
2022/09/17 07:39:34;;;;;;;0.98;0.98;;;;;;;;;;5089743;28;20100;-86
2022/09/17 07:42:02;;;;;;;0.50;0.50;;;;;;;;;;5062014;28;20071;-85
2022/09/17 07:44:29;;;;;;;0.38;0.38;;;;;;;;;;5071603;28;20068;-88
2022/09/17 07:46:54;;;;;;;;;;;12.90;99.90;;;;;;5060492;28;20040;-88
2022/09/17 07:49:20;;;;;;;0.40;0.40;;;12.90;99.90;;;;;;5063492;28;19939;-86
2022/09/17 07:51:46;;;;;;;1.92;0.65;;;13.20;99.90;;;;;;5057614;28;20032;-89
2022/09/17 07:54:12;;;;;;;0.60;0.60;;;13.10;99.90;;;;;;5030998;28;20041;-91
2022/09/17 07:56:38;;;;;;;0.40;0.40;;;;;;;;;;5055358;28;20048;-89
2022/09/17 07:59:04;;;;;;;;;;;;;;;;;;5073750;28;20047;-89
2022/09/17 08:01:35;;;;;;;2.50;2.30;;;;;;;;;;5076058;28;20458;-87
2022/09/17 08:04:01;;;;;;;4.65;2.33;;;;;;;;;;5091727;28;20056;-90
2022/09/17 08:06:27;;;;;;;0.40;0.40;;;11.50;99.90;;;;;;5075267;28;20051;-91
2022/09/17 08:08:56;;;;;;;0.50;0.50;;;11.40;99.90;;;;;;5070079;28;20040;-89
2022/09/17 08:11:25;;;;;;;0.60;0.60;;;11.70;99.90;;;;;;5064377;28;20162;-89
2022/09/17 08:13:52;;;;;;;0.50;0.50;;;11.90;99.90;;;;;;5060893;28;20048;-90
2022/09/17 08:16:19;;;;;;;0.55;0.55;;;12.00;99.90;;;;;;5079214;28;20044;-90
2022/09/17 08:18:46;;;;;;;0.40;0.40;;;12.20;99.90;;;;;;5061757;28;20040;-90
2022/09/17 08:21:17;;;;;;;0.40;0.40;;;12.80;99.90;;;;;;5061411;28;20147;-89
2022/09/17 08:23:43;;;;;;;0.40;0.40;;;12.60;99.90;;;;;;5046374;28;20066;-89
2022/09/17 08:26:21;;;;;;;0.40;0.40;;;12.70;99.90;;;;;;5060052;28;20045;-89
2022/09/17 08:28:53;;;;;;;1.02;0.55;;;;;;;;;;5047211;28;20040;-89
2022/09/17 08:31:20;;;;;;;0.40;0.40;;;;;;;;;;5053922;28;20466;-88
2022/09/17 08:33:47;;;;;;;0.35;0.35;;;;;;;;;;5033213;28;20044;-90
2022/09/17 08:36:14;;;;;;;0.32;0.32;;;;;;;;;;5074270;28;20048;-89
2022/09/17 08:38:40;;;;;;;0.38;0.38;;;;;;;;;;5068308;28;20044;-85
2022/09/17 08:41:06;;;;;;;;;;;;;;;;;;5080633;28;20167;-85
2022/09/17 08:43:49;;;;;;;0.47;0.43;;;;;;;;;;5083919;28;19916;-87
2022/09/17 08:46:15;;;;;;;0.30;0.30;;;;;;;;;;5080253;28;20074;-88
2022/09/17 08:49:00;;;;;;;1.10;1.10;;;14.40;99.90;;;;;;5074253;28;20124;-86
2022/09/17 08:51:55;;;;;;;0.30;0.30;;;14.30;99.90;;;;;;5050426;28;20044;-87
2022/09/17 08:54:49;;;;;;;0.40;0.40;;;14.00;99.90;;;;;;5033176;28;20056;-85
2022/09/17 08:57:30;;;;;;;0.25;0.25;;;13.40;99.90;;;;;;5082902;28;20524;-87
2022/09/17 09:00:16;;;;;;;0.40;0.40;;;12.50;99.90;;;;;;5068454;28;20490;-88
2022/09/17 09:03:07;;;;;;;0.65;0.65;;;11.80;99.90;;;;;;5063469;28;20481;-88
2022/09/17 09:05:45;;;;;;;0.40;0.40;;;11.50;99.90;;;;;;5082578;28;20480;-87
2022/09/17 09:08:18;;;;;;;0.40;0.40;;;11.40;99.90;;;;;;5076204;28;20036;-87
2022/09/17 09:10:51;;;;;;;0.40;0.40;;;11.40;99.90;;;;;;5066805;28;20048;-87
2022/09/17 09:13:21;;;;;;;0.57;0.57;;;11.40;99.90;;;;;;5065667;28;20040;-87
2022/09/17 09:16:10;;;;;;;0.47;0.47;;;11.40;99.90;;;;;;5062542;28;20037;-87
2022/09/17 09:18:40;;;;;;;2.60;0.70;;;11.40;99.90;;;;;;5094357;28;20094;-89
2022/09/17 09:21:12;;;;;;;0.40;0.40;;;11.50;99.90;;;;;;5077547;28;20054;-88
2022/09/17 09:23:44;;;;;;;0.60;0.60;;;11.50;99.90;;;;;;5052784;28;20033;-87
2022/09/17 09:26:17;;;;;;;0.50;0.50;;;11.60;99.90;;;;;;5060501;28;20091;-88
2022/09/17 09:29:04;;;;;;;0.63;0.63;;;11.80;99.90;;;;;;5085145;28;20397;-87
2022/09/17 09:31:55;;;;;;;0.40;0.40;;;11.40;99.90;;;;;;5056910;28;20040;-87
2022/09/17 09:34:22;;;;;;;0.43;0.43;;;10.40;99.90;;;;;;5065801;28;20052;-85
2022/09/17 09:36:49;;;;;;;0.40;0.40;;;9.70;99.90;;;;;;5035454;28;20055;-86
2022/09/17 09:39:34;;;;;;;0.60;0.60;;;9.40;99.90;;;;;;5069323;28;20044;-85
2022/09/17 09:42:29;;;;;;;0.60;0.60;;;9.20;99.90;;;;;;5075227;28;20040;-84
2022/09/17 09:45:15;;;;;;;0.45;0.45;;;9.10;99.90;;;;;;5053502;28;20386;-86
2022/09/17 09:48:04;;;;;;;0.50;0.50;;;9.20;99.90;;;;;;5060935;28;20086;-85
2022/09/17 09:50:39;;;;;;;0.60;0.60;;;9.50;99.90;;;;;;5053889;28;20051;-85
2022/09/17 09:53:34;;;;;;;0.70;0.57;;;9.70;99.90;;;;;;5056625;28;20048;-87
2022/09/17 09:56:05;;;;;;;0.50;0.50;;;9.90;99.90;;;;;;5071255;28;20048;-87
2022/09/17 09:58:37;;;;;;;0.40;0.40;;;10.10;99.90;;;;;;5088117;28;20140;-85
2022/09/17 10:01:19;;;;;;;0.50;0.50;;;10.40;99.90;;;;;;5071906;28;20045;-83
2022/09/17 10:03:46;;;;;;;1.15;0.88;;;10.60;99.90;;;;;;5069820;28;20082;-87
2022/09/17 10:06:13;;;;;;;0.38;0.38;;;10.70;99.90;;;;;;5062647;28;20049;-85
2022/09/17 10:09:01;;;;;;;0.57;0.57;;;10.80;99.90;;;;;;5072373;28;20541;-84
2022/09/17 10:11:29;;;;;;;0.43;0.43;;;11.10;99.90;;;;;;5061651;28;20043;-85
2022/09/17 10:14:18;;;;;;;0.40;0.40;;;11.40;99.90;;;;;;5047658;28;20048;-84
2022/09/17 10:16:44;;;;;;;0.40;0.40;;;11.60;99.90;;;;;;5084149;28;20189;-84
2022/09/17 10:19:18;;;;;;;;;;;11.70;99.90;;;;;;5044936;28;20072;-85
2022/09/17 10:21:44;;;;;;;0.57;0.57;;;11.50;99.90;;;;;;5075104;28;20513;-85
2022/09/17 10:24:30;;;;;;;0.40;0.40;;;11.30;99.90;;;;;;5071500;28;20084;-86
2022/09/17 10:27:26;;;;;;;0.50;0.50;;;11.20;99.90;;;;;;5069044;28;20047;-84
2022/09/17 10:30:16;;;;;;;0.40;0.40;;;11.10;99.90;;;;;;5046891;28;20064;-83
2022/09/17 10:32:43;;;;;;;4.90;2.05;;;11.10;99.90;;;;;;5063935;28;20098;-87
2022/09/17 10:35:14;;;;;;;0.50;0.50;;;11.10;99.90;;;;;;5072645;28;20037;-87
2022/09/17 10:37:49;;;;;;;0.30;0.30;;;11.20;99.90;;;;;;5057965;28;20469;-84
2022/09/17 10:40:17;;;;;;;0.50;0.50;;;11.40;99.90;;;;;;5067913;28;20041;-88
2022/09/17 10:43:00;;;;;;;0.60;0.60;;;11.70;99.90;;;;;;5085848;28;20037;-86
2022/09/17 10:45:28;;;;;;;0.47;0.47;;;12.10;99.90;;;;;;5065263;28;20052;-86
2022/09/17 10:47:56;;;;;;;0.38;0.38;;;12.50;99.90;;;;;;5045411;28;20037;-87
2022/09/17 10:50:30;;;;;;;0.50;0.50;;;12.90;99.90;;;;;;5055375;28;20047;-89
2022/09/17 10:53:03;;;;;;;0.40;0.40;;;13.20;99.90;;;;;;5071417;28;20032;-88
2022/09/17 10:56:02;;;;;;;0.40;0.40;;;13.60;99.90;;;;;;5081693;28;20079;-87
2022/09/17 10:58:55;;;;;;;0.47;0.47;;;13.60;99.90;;;;;;5069471;28;20119;-88
2022/09/17 11:01:38;;;;;;;0.47;0.47;;;13.60;99.90;;;;;;5064159;28;20513;-87
2022/09/17 11:04:38;;;;;;;0.50;0.50;;;13.60;99.90;;;;;;5033040;28;1111506;-87
2022/09/17 11:07:09;;;;;;;0.40;0.40;;;13.80;99.90;;;;;;5065984;28;20291;-87
2022/09/17 11:10:05;;;;;;;0.40;0.40;;;13.90;99.90;;;;;;5072177;28;20044;-86
2022/09/17 11:13:01;;;;;;;0.68;0.68;;;14.10;99.90;;;;;;5048156;28;20047;-86
2022/09/17 11:15:38;;;;;;;0.35;0.35;;;14.30;99.90;;;;;;5068627;28;20045;-88
2022/09/17 11:18:16;;;;;;;0.30;0.30;;;14.40;99.90;;;;;;5052018;28;20055;-87
2022/09/17 11:21:12;;;;;;;0.32;0.32;;;14.50;99.90;;;;;;5064598;28;20102;-88
2022/09/17 11:24:02;;;;;;;0.40;0.40;;;14.50;99.90;;;;;;5076185;28;20072;-87
2022/09/17 11:27:02;;;;;;;0.32;0.32;;;14.70;99.90;;;;;;5061380;28;20041;-88
2022/09/17 11:29:28;;;;;;;0.35;0.35;;;14.80;99.90;;;;;;5069236;28;20040;-87
2022/09/17 11:32:19;;;;;;;0.30;0.30;;;14.80;99.90;;;;;;5056876;28;20036;-89
2022/09/17 11:34:54;;;;;;;1.25;1.15;;;15.00;99.90;;;;;;5067828;28;20447;-86
2022/09/17 11:37:29;;;;;;;0.40;0.40;;;15.10;99.90;;;;;;5072205;28;20123;-89
2022/09/17 11:40:12;;;;;;;0.30;0.30;;;15.20;99.90;;;;;;5060234;28;20105;-88
2022/09/17 11:42:47;;;;;;;0.20;0.20;;;15.20;99.90;;;;;;5058378;28;20482;-88
2022/09/17 11:45:18;;;;;;;0.63;0.63;;;15.20;99.90;;;;;;5085991;28;20066;-87
2022/09/17 11:47:55;;;;;;;0.30;0.30;;;15.30;99.90;;;;;;5043108;28;20066;-89
2022/09/17 11:50:30;;;;;;;0.30;0.30;;;15.30;99.90;;;;;;5074049;28;20040;-88
2022/09/17 11:53:13;;;;;;;0.73;0.73;;;15.60;99.90;;;;;;5036276;28;20541;-88
2022/09/17 11:55:46;;;;;;;0.60;0.60;;;15.90;99.90;;;;;;5060492;28;20045;-89
2022/09/17 11:58:31;;;;;;;0.30;0.30;;;16.00;99.90;;;;;;5077822;28;20068;-86
2022/09/17 12:01:08;;;;;;;0.20;0.20;;;15.80;99.90;;;;;;5055355;28;20045;-88
2022/09/17 12:03:49;;;;;;;0.30;0.30;;;15.60;99.90;;;;;;5066671;28;20035;-89
2022/09/17 12:06:22;;;;;;;0.40;0.40;;;15.20;99.90;;;;;;5076337;28;20059;-87
2022/09/17 12:09:24;;;;;;;0.40;0.40;;;15.00;99.90;;;;;;5078591;28;20032;-86
2022/09/17 12:11:58;;;;;;;0.32;0.32;;;15.10;99.90;;;;;;5069810;28;20090;-87
2022/09/17 12:14:43;;;;;;;0.77;0.68;;;15.10;99.90;;;;;;5049146;28;20405;-88
2022/09/17 12:17:20;;;;;;;0.47;0.47;;;15.70;99.90;;;;;;5063683;28;20103;-87
2022/09/17 12:19:58;;;;;;;0.30;0.30;;;15.20;99.90;;;;;;5069746;28;20041;-87
2022/09/17 12:22:31;;;;;;;0.40;0.40;;;15.60;99.90;;;;;;5067406;28;20044;-87
2022/09/17 12:24:59;;;;;;;0.30;0.30;;;15.90;99.90;;;;;;5054477;28;20111;-86
2022/09/17 12:27:33;;;;;;;0.35;0.35;;;15.70;99.90;;;;;;5048714;28;20048;-89
2022/09/17 12:30:09;;;;;;;0.57;0.57;;;15.10;99.90;;;;;;5071364;28;20532;-86
2022/09/17 12:32:57;;;;;;;0.40;0.40;;;14.90;99.90;;;;;;5075522;28;20076;-86
2022/09/17 12:35:47;;;;;;;0.60;0.60;;;14.90;99.90;;;;;;5064721;28;20048;-86
2022/09/17 12:38:19;;;;;;;0.30;0.30;;;15.00;99.90;;;;;;5080413;28;20048;-85
2022/09/17 12:41:36;;;;;;;1.15;1.05;;;15.30;99.90;;;;;;5071853;28;20079;-88
2022/09/17 12:44:19;;;;;;;0.30;0.30;;;15.60;99.90;;;;;;5036497;28;20556;-87
2022/09/17 12:46:57;;;;;;;0.30;0.30;;;15.70;99.90;;;;;;5038449;28;20127;-86
2022/09/17 12:49:50;;;;;;;0.30;0.30;;;15.60;99.90;;;;;;5061293;28;20040;-87
2022/09/17 12:52:29;;;;;;;0.30;0.30;;;15.30;99.90;;;;;;5070081;28;20040;-86
2022/09/17 12:55:16;;;;;;;0.52;0.50;;;15.10;99.90;;;;;;5072797;28;20048;-85
2022/09/17 12:58:47;;;;;;;0.82;0.82;;;15.00;99.90;;;;;;5060358;28;21442;-87
2022/09/17 13:01:35;;;;;;;4.57;0.60;;;15.30;99.90;;;;;;5053248;28;20049;-88
2022/09/17 13:04:22;;;;;;;0.80;0.80;;;15.70;99.90;;;;;;5067649;28;20083;-86
2022/09/17 13:06:48;;;;;;;;;;;15.90;99.90;;;;;;5054238;28;20052;-87
2022/09/17 13:09:41;;;;;;;0.47;0.47;;;16.10;99.90;;;;;;5073595;28;20271;-85
2022/09/17 13:12:40;;;;;;;0.30;0.30;;;16.20;99.90;;;;;;5058346;28;20482;-86
2022/09/17 13:15:45;;;;;;;0.40;0.40;;;16.00;99.90;;;;;;5046294;28;20056;-87
2022/09/17 13:18:30;;;;;;;0.65;0.65;;;15.60;99.90;;;;;;5069443;28;20071;-86
2022/09/17 13:21:21;;;;;;;0.30;0.30;;;15.50;99.90;;;;;;5070552;28;20477;-86
2022/09/17 13:23:50;;;;;;;0.30;0.30;;;15.60;99.90;;;;;;5070988;28;20420;-87
2022/09/17 13:26:21;;;;;;;0.25;0.25;;;16.00;99.90;;;;;;5070364;28;20509;-87
2022/09/17 13:28:51;;;;;;;0.30;0.30;;;16.20;99.90;;;;;;5054011;28;20075;-86
2022/09/17 13:31:22;;;;;;;0.77;0.77;;;16.30;99.90;;;;;;5069708;28;20044;-87
2022/09/17 13:33:54;;;;;;;0.30;0.30;;;16.20;99.90;;;;;;5071225;28;20555;-88
2022/09/17 13:36:42;;;;;;;0.40;0.40;;;16.20;99.90;;;;;;5079995;28;20044;-87
2022/09/17 13:39:28;;;;;;;0.50;0.50;;;16.40;99.90;;;;;;5072776;28;20457;-86
2022/09/17 13:42:06;;;;;;;0.57;0.57;;;16.40;99.90;;;;;;5056873;28;20052;-87
2022/09/17 13:44:35;;;;;;;0.10;0.10;;;16.50;99.90;;;;;;5079747;28;20047;-87
2022/09/17 13:47:30;;;;;;;0.20;0.20;;;16.60;99.90;;;;;;5072504;28;20045;-87
2022/09/17 13:50:04;;;;;;;0.70;0.70;;;17.00;99.90;;;;;;5073069;28;20044;-88
2022/09/17 13:52:37;;;;;;;0.20;0.20;;;17.10;99.90;;;;;;5085414;28;20386;-85
2022/09/17 13:55:05;;;;;;;1.10;0.63;;;17.20;99.10;;;;;;5088771;28;20066;-85